Time;durP1;ratioP1;P1;durP2;ratioP2;P2;SDS_P1;SDS_P2;PMS_P1;PMS_P2;Temp;Humidity;BMP_temperature;BMP_pressure;BME280_temperature;BME280_humidity;BME280_pressure;Samples;Min_cycle;Max_cycle;Signal;HPM_P1;HPM_P2
2023/07/10 00:01:02;;;;;;;6.13;5.53;;;;;;;25.59;55.02;97464.94;6044171;23;20014;-80
2023/07/10 00:03:30;;;;;;;6.53;5.88;;;;;;;25.48;55.19;97447.84;6043688;23;20086;-79
2023/07/10 00:05:56;;;;;;;5.93;5.32;;;;;;;25.66;54.63;97471.59;6018911;23;20007;-80
2023/07/10 00:08:22;;;;;;;6.68;5.97;;;;;;;25.64;54.65;97471.16;6077053;23;20066;-79
2023/07/10 00:10:48;;;;;;;7.00;5.80;;;;;;;25.60;54.65;97455.84;6053708;23;20015;-80
2023/07/10 00:13:14;;;;;;;7.07;6.38;;;;;;;25.56;55.05;97459.50;6043607;23;20030;-80
2023/07/10 00:15:40;;;;;;;6.20;5.60;;;;;;;25.57;55.13;97463.72;6019571;23;20003;-80
2023/07/10 00:18:24;;;;;;;6.82;6.13;;;;;;;25.66;54.78;97464.38;6053888;23;20031;-80
2023/07/10 00:20:50;;;;;;;6.05;5.40;;;;;;;25.57;54.48;97456.50;6042756;23;20088;-79
2023/07/10 00:23:16;;;;;;;6.07;5.30;;;;;;;25.58;55.12;97458.06;6045698;23;20008;-80
2023/07/10 00:25:42;;;;;;;7.00;6.18;;;;;;;25.55;54.61;97449.94;5995809;23;20012;-80
2023/07/10 00:28:17;;;;;;;6.70;6.00;;;;;;;25.54;54.52;97443.06;6043251;23;19999;-79
2023/07/10 00:30:45;;;;;;;6.55;5.95;;;;;;;25.49;54.72;97443.28;6043450;23;20010;-79
2023/07/10 00:33:11;;;;;;;6.15;5.60;;;;;;;25.41;54.70;97432.44;6045411;23;20015;-81
2023/07/10 00:35:37;;;;;;;9.27;6.63;;;;;;;25.48;54.74;97439.06;6045169;23;20008;-79
2023/07/10 00:38:13;;;;;;;6.88;6.18;;;;;;;25.50;54.83;97434.97;6043595;23;20459;-79
2023/07/10 00:40:38;;;;;;;6.93;5.90;;;;;;;25.38;55.15;97437.66;5954974;23;20008;-79
2023/07/10 00:43:27;;;;;;;7.07;6.10;;;;;;;25.45;55.63;97451.19;6020577;23;20007;-79
2023/07/10 00:45:53;;;;;;;9.20;6.40;;;;;;;25.29;55.21;97442.31;6047506;23;20007;-80
2023/07/10 00:48:31;;;;;;;6.90;5.88;;;;;;;25.25;55.59;97466.16;6029781;23;20003;-80
2023/07/10 00:50:59;;;;;;;6.85;6.25;;;;;;;25.20;55.31;97461.81;6024071;23;20034;-80
2023/07/10 00:53:28;;;;;;;6.07;5.47;;;;;;;25.34;54.69;97474.06;6056460;23;20003;-79
2023/07/10 00:55:57;;;;;;;6.80;5.90;;;;;;;25.31;54.34;97474.72;6053218;23;20023;-80
2023/07/10 00:58:38;;;;;;;6.05;5.45;;;;;;;25.37;55.10;97481.41;6071726;23;20008;-80
2023/07/10 01:01:18;;;;;;;6.28;5.65;;;;;;;25.26;55.14;97467.75;6013899;23;20163;-80
2023/07/10 01:03:45;;;;;;;7.07;6.38;;;;;;;25.23;55.61;97490.47;5932792;23;20079;-79
2023/07/10 01:06:20;;;;;;;6.75;6.15;;;;;;;25.25;55.79;97495.47;5934164;23;20300;-80
2023/07/10 01:08:55;;;;;;;6.78;6.13;;;;;;;25.23;55.85;97495.81;5911097;23;20181;-79
2023/07/10 01:11:20;;;;;;;7.20;6.50;;;;;;;25.14;56.10;97500.47;5943144;23;20240;-79
2023/07/10 01:13:49;;;;;;;7.57;6.90;;;;;;;25.10;56.57;97504.88;5943901;23;20601;-79
2023/07/10 01:16:14;;;;;;;7.22;6.63;;;;;;;25.02;56.31;97503.91;5911587;23;20585;-79
2023/07/10 01:18:40;;;;;;;8.25;6.50;;;;;;;24.98;56.89;97507.53;5935349;23;20181;-79
2023/07/10 01:21:11;;;;;;;6.85;6.18;;;;;;;24.97;56.04;97508.66;5967914;23;20169;-79
2023/07/10 01:23:37;;;;;;;7.45;6.70;;;;;;;24.86;56.77;97506.44;5967107;23;20272;-79
2023/07/10 01:26:03;;;;;;;6.95;6.22;;;;;;;24.78;56.84;97504.63;5935574;23;20189;-79
2023/07/10 01:28:29;;;;;;;6.97;6.30;;;;;;;24.81;56.85;97503.97;5912184;23;20676;-80
2023/07/10 01:30:56;;;;;;;7.38;6.65;;;;;;;24.80;57.30;97496.31;5933890;23;20202;-79
2023/07/10 01:33:25;;;;;;;6.43;5.82;;;;;;;24.82;57.09;97504.75;5934963;23;20547;-79
2023/07/10 01:35:54;;;;;;;6.88;5.90;;;;;;;24.73;57.53;97510.16;5934418;23;20210;-79
2023/07/10 01:38:21;;;;;;;7.25;6.07;;;;;;;24.70;56.95;97510.81;5934844;23;20673;-80
2023/07/10 01:40:51;;;;;;;6.93;6.32;;;;;;;24.69;57.37;97511.91;5967064;23;20273;-79
2023/07/10 01:43:16;;;;;;;6.43;5.80;;;;;;;24.61;56.96;97510.13;5910763;23;20139;-78
2023/07/10 01:45:45;;;;;;;6.95;6.35;;;;;;;24.60;56.82;97508.56;5935263;23;20290;-79
2023/07/10 01:48:12;;;;;;;6.20;5.60;;;;;;;24.65;56.92;97511.78;5966666;23;20169;-80
2023/07/10 01:50:38;;;;;;;7.35;6.35;;;;;;;24.66;56.96;97508.03;5968928;23;20260;-79
2023/07/10 01:53:06;;;;;;;6.40;5.90;;;;;;;24.63;57.12;97507.91;5943011;23;20247;-79
2023/07/10 01:55:33;;;;;;;7.68;5.93;;;;;;;24.57;57.26;97514.53;6058758;23;20684;-80
2023/07/10 01:57:58;;;;;;;6.25;5.65;;;;;;;24.60;57.12;97505.91;5990857;23;20138;-80
2023/07/10 02:00:23;;;;;;;8.13;7.32;;;;;;;24.65;57.15;97506.47;5966751;23;20236;-81
2023/07/10 02:02:49;;;;;;;7.32;6.70;;;;;;;24.65;57.55;97505.69;5967787;23;20124;-79
2023/07/10 02:05:14;;;;;;;7.78;6.97;;;;;;;24.77;57.04;97500.41;5968192;23;20570;-81
2023/07/10 02:07:39;;;;;;;8.15;6.78;;;;;;;24.86;56.49;97509.09;5944860;23;20311;-80
2023/07/10 02:10:05;;;;;;;8.20;7.10;;;;;;;24.81;56.76;97503.19;5934456;23;20150;-80
2023/07/10 02:12:34;;;;;;;7.15;6.32;;;;;;;24.81;57.23;97500.50;5958458;23;20193;-79
2023/07/10 02:14:59;;;;;;;7.05;6.35;;;;;;;24.68;57.56;97521.03;5935480;23;20159;-80
2023/07/10 02:17:25;;;;;;;7.07;6.40;;;;;;;24.74;57.32;97513.59;5967656;23;20224;-80
2023/07/10 02:19:50;;;;;;;6.85;6.07;;;;;;;24.74;57.53;97503.72;5967837;23;20607;-80
2023/07/10 02:22:15;;;;;;;6.07;5.50;;;;;;;24.89;56.64;97504.22;5933696;23;20171;-80
2023/07/10 02:24:41;;;;;;;6.28;5.68;;;;;;;24.97;55.94;97498.00;5934515;23;20611;-80
2023/07/10 02:27:07;;;;;;;6.70;6.15;;;;;;;24.99;56.16;97501.88;5911574;23;20191;-80
2023/07/10 02:29:32;;;;;;;6.57;5.97;;;;;;;24.99;56.24;97511.78;5944567;23;20202;-80
2023/07/10 02:31:59;;;;;;;6.78;6.15;;;;;;;24.93;56.58;97507.75;5944093;23;20143;-80
2023/07/10 02:34:25;;;;;;;6.78;6.20;;;;;;;24.91;56.22;97516.06;5967296;23;20073;-81
2023/07/10 02:36:50;;;;;;;7.05;6.38;;;;;;;24.93;56.20;97518.41;5911578;23;20177;-79
2023/07/10 02:39:16;;;;;;;8.73;6.30;;;;;;;24.93;56.25;97510.41;5934139;23;20268;-80
2023/07/10 02:41:41;;;;;;;6.82;6.15;;;;;;;24.86;56.74;97505.63;5991290;23;20215;-80
2023/07/10 02:44:06;;;;;;;7.65;5.70;;;;;;;24.73;56.97;97504.84;5935292;23;20259;-79
2023/07/10 02:46:32;;;;;;;7.10;6.40;;;;;;;24.59;57.36;97512.31;5934966;23;20280;-79
2023/07/10 02:48:57;;;;;;;6.82;6.13;;;;;;;24.63;57.42;97515.91;5934863;23;20268;-79
2023/07/10 02:51:23;;;;;;;6.38;5.78;;;;;;;24.59;57.95;97510.44;5944444;23;20638;-79
2023/07/10 02:53:51;;;;;;;7.00;6.40;;;;;;;24.54;58.07;97512.50;5935563;23;20604;-81
2023/07/10 02:56:16;;;;;;;7.13;6.53;;;;;;;24.47;58.09;97521.81;5935017;23;20169;-79
2023/07/10 02:58:41;;;;;;;6.68;6.05;;;;;;;24.46;58.54;97519.47;5943776;23;20503;-79
2023/07/10 03:01:07;;;;;;;6.85;6.10;;;;;;;24.41;58.33;97528.41;5934163;23;20246;-79
2023/07/10 03:03:32;;;;;;;6.45;5.88;;;;;;;24.45;58.67;97533.88;5934162;23;20259;-79
2023/07/10 03:06:00;;;;;;;7.18;6.50;;;;;;;24.43;58.74;97528.88;5944476;23;20200;-81
2023/07/10 03:08:26;;;;;;;7.25;6.55;;;;;;;24.36;59.25;97525.97;5958336;23;20242;-79
2023/07/10 03:11:04;;;;;;;8.18;6.82;;;;;;;24.51;58.49;97543.22;5934827;23;20146;-80
2023/07/10 03:13:30;;;;;;;7.07;6.40;;;;;;;24.50;57.90;97549.63;5967795;23;20389;-80
2023/07/10 03:15:58;;;;;;;7.20;6.60;;;;;;;24.51;58.11;97537.13;5934893;23;20257;-80
2023/07/10 03:18:24;;;;;;;7.50;6.90;;;;;;;24.42;57.80;97530.00;5966973;23;20165;-79
2023/07/10 03:20:49;;;;;;;6.78;6.07;;;;;;;24.38;58.35;97537.06;5991375;23;20189;-80
2023/07/10 03:23:17;;;;;;;7.00;6.40;;;;;;;24.35;58.76;97534.25;5943710;23;20165;-79
2023/07/10 03:25:42;;;;;;;7.15;5.90;;;;;;;24.29;58.89;97539.00;5934728;23;20189;-79
2023/07/10 03:28:08;;;;;;;6.60;6.00;;;;;;;24.28;58.55;97542.78;5934134;23;20515;-79
2023/07/10 03:30:37;;;;;;;6.93;6.32;;;;;;;24.24;59.13;97541.88;5934858;23;20510;-79
2023/07/10 03:33:03;;;;;;;7.00;6.30;;;;;;;24.19;59.24;97542.06;5911751;23;20187;-79
2023/07/10 03:35:28;;;;;;;6.78;6.18;;;;;;;24.12;59.25;97553.22;5966826;23;20260;-79
2023/07/10 03:37:53;;;;;;;7.28;6.57;;;;;;;24.06;59.36;97547.31;5970099;23;20186;-80
2023/07/10 03:40:19;;;;;;;6.82;6.07;;;;;;;24.04;59.26;97559.38;5945613;23;20253;-80
2023/07/10 03:42:44;;;;;;;8.38;7.18;;;;;;;24.07;58.67;97564.06;5914379;23;20507;-81
2023/07/10 03:45:10;;;;;;;7.28;6.03;;;;;;;24.00;58.93;97566.44;5993804;23;20273;-80
2023/07/10 03:47:35;;;;;;;6.47;5.75;;;;;;;23.97;59.42;97569.75;5913797;23;20345;-79
2023/07/10 03:50:01;;;;;;;6.95;6.35;;;;;;;23.91;59.51;97561.19;5946324;23;20468;-81
2023/07/10 03:52:26;;;;;;;7.50;6.78;;;;;;;23.89;59.52;97564.16;5937043;23;20014;-82
2023/07/10 03:54:52;;;;;;;6.45;5.78;;;;;;;23.85;59.65;97568.56;5938029;23;20179;-80
2023/07/10 03:57:17;;;;;;;7.68;6.70;;;;;;;23.92;59.45;97573.38;5970493;23;20177;-80
2023/07/10 03:59:43;;;;;;;7.22;6.53;;;;;;;23.92;59.40;97576.03;5945521;23;20436;-79
2023/07/10 04:02:08;;;;;;;6.90;6.15;;;;;;;23.84;59.85;97569.66;5912949;23;20034;-79
2023/07/10 04:04:34;;;;;;;6.80;6.15;;;;;;;23.88;60.53;97572.47;5913432;23;20014;-79
2023/07/10 04:06:59;;;;;;;6.30;5.70;;;;;;;23.81;60.66;97574.81;5945077;23;20142;-79
2023/07/10 04:09:25;;;;;;;8.52;6.50;;;;;;;23.85;60.46;97586.41;5970932;23;20333;-79
2023/07/10 04:11:50;;;;;;;6.72;6.13;;;;;;;23.86;60.59;97582.66;5961171;23;20177;-79
2023/07/10 04:14:16;;;;;;;6.38;5.65;;;;;;;23.91;60.07;97580.56;5937690;23;20197;-79
2023/07/10 04:16:41;;;;;;;7.18;6.47;;;;;;;23.91;60.44;97591.22;5936292;23;20513;-79
2023/07/10 04:19:07;;;;;;;6.00;5.38;;;;;;;23.95;60.82;97591.34;5913895;23;20259;-79
2023/07/10 04:21:33;;;;;;;8.18;6.60;;;;;;;23.95;61.21;97586.03;5936746;23;20154;-79
2023/07/10 04:23:58;;;;;;;7.55;6.07;;;;;;;24.00;60.99;97593.81;5969130;23;20186;-80
2023/07/10 04:26:29;;;;;;;7.20;6.50;;;;;;;24.04;62.00;97597.41;5936779;23;20173;-79
2023/07/10 04:28:57;;;;;;;7.20;6.47;;;;;;;24.10;61.20;97608.63;5959090;23;20456;-79
2023/07/10 04:31:23;;;;;;;7.13;6.43;;;;;;;24.20;61.16;97612.81;5959986;23;20412;-79
2023/07/10 04:33:51;;;;;;;7.60;6.00;;;;;;;24.34;60.14;97616.00;5992130;23;20393;-80
2023/07/10 04:36:18;;;;;;;7.18;6.47;;;;;;;24.42;59.89;97625.81;5959119;23;20169;-79
2023/07/10 04:38:44;;;;;;;7.03;6.32;;;;;;;24.39;59.60;97626.44;5968953;23;20248;-79
2023/07/10 04:41:15;;;;;;;6.85;6.15;;;;;;;24.45;60.11;97629.69;5969415;23;20355;-79
2023/07/10 04:43:40;;;;;;;7.00;6.40;;;;;;;24.45;61.21;97632.34;5936797;23;20154;-79
2023/07/10 04:46:10;;;;;;;8.38;6.50;;;;;;;24.56;60.53;97636.22;5935336;23;20040;-80
2023/07/10 04:48:36;;;;;;;7.75;6.70;;;;;;;24.57;60.27;97643.09;5937129;23;20222;-79
2023/07/10 04:51:04;;;;;;;6.88;6.15;;;;;;;24.72;60.36;97643.63;5912939;23;20440;-79
2023/07/10 04:53:33;;;;;;;7.25;6.55;;;;;;;24.88;60.27;97651.81;5970119;23;20174;-79
2023/07/10 04:56:01;;;;;;;7.22;5.88;;;;;;;24.92;59.60;97644.72;5913986;23;20227;-80
2023/07/10 04:58:28;;;;;;;7.45;6.05;;;;;;;24.95;59.62;97644.84;5914120;23;20147;-79
2023/07/10 05:00:59;;;;;;;7.25;6.53;;;;;;;25.10;59.56;97659.44;5941589;23;20372;-79
2023/07/10 05:03:25;;;;;;;8.10;6.43;;;;;;;25.02;59.92;97647.00;5936115;23;20490;-79
2023/07/10 05:05:56;;;;;;;6.47;5.88;;;;;;;25.14;59.46;97646.22;5935620;23;20162;-79
2023/07/10 05:08:23;;;;;;;7.68;6.63;;;;;;;25.17;60.08;97645.56;5967947;23;20206;-79
2023/07/10 05:10:54;;;;;;;6.68;5.97;;;;;;;25.20;60.36;97647.59;5936076;23;20203;-79
2023/07/10 05:13:22;;;;;;;7.82;6.30;;;;;;;25.24;59.77;97641.28;5936185;23;20322;-79
2023/07/10 05:15:48;;;;;;;6.78;6.18;;;;;;;25.31;60.04;97647.97;5912697;23;20189;-79
2023/07/10 05:18:14;;;;;;;7.63;6.82;;;;;;;25.36;59.51;97634.44;5960470;23;20356;-81
2023/07/10 05:20:42;;;;;;;8.38;6.65;;;;;;;25.41;59.25;97634.22;5937270;23;20658;-79
2023/07/10 05:23:08;;;;;;;7.93;6.38;;;;;;;25.52;58.96;97635.38;5970574;23;20595;-82
2023/07/10 05:25:33;;;;;;;9.35;7.20;;;;;;;25.56;59.60;97641.59;5968747;23;20185;-80
2023/07/10 05:28:01;;;;;;;7.43;6.22;;;;;;;25.68;59.11;97640.81;5993413;23;20166;-81
2023/07/10 05:30:27;;;;;;;7.80;6.47;;;;;;;25.80;58.03;97642.72;5946314;23;20059;-82
2023/07/10 05:32:52;;;;;;;7.15;6.45;;;;;;;25.83;58.00;97641.28;5913800;23;20175;-80
2023/07/10 05:35:18;;;;;;;7.30;6.60;;;;;;;25.92;58.29;97642.72;5936702;23;20193;-80
2023/07/10 05:37:43;;;;;;;7.40;6.80;;;;;;;25.97;58.18;97647.09;5946008;23;20353;-81
2023/07/10 05:40:09;;;;;;;9.32;7.10;;;;;;;26.03;58.15;97655.66;5969165;23;20314;-79
2023/07/10 05:42:35;;;;;;;9.38;6.70;;;;;;;26.10;58.02;97651.31;5970213;23;20003;-80
2023/07/10 05:45:00;;;;;;;7.32;6.50;;;;;;;26.13;57.52;97649.88;5969220;23;20050;-80
2023/07/10 05:47:51;;;;;;;7.78;7.07;;;;;;;26.20;57.83;97650.09;5942068;23;20268;-81
2023/07/10 05:50:17;;;;;;;7.18;6.50;;;;;;;26.29;57.15;97658.75;5913807;23;20217;-80
2023/07/10 05:52:42;;;;;;;7.40;6.70;;;;;;;26.39;57.24;97667.41;5943697;23;20314;-80
2023/07/10 05:55:08;;;;;;;9.43;7.93;;;;;;;26.36;57.05;97660.88;5946613;23;20440;-80
2023/07/10 05:57:33;;;;;;;7.93;7.20;;;;;;;26.44;56.94;97664.50;5944943;23;20329;-81
2023/07/10 05:59:59;;;;;;;7.25;6.55;;;;;;;26.42;57.33;97674.75;5946771;23;20325;-80
2023/07/10 06:02:25;;;;;;;7.82;6.80;;;;;;;26.53;57.45;97678.53;5937842;23;20382;-80
2023/07/10 06:04:51;;;;;;;7.85;7.05;;;;;;;26.59;56.96;97677.16;5962148;23;20193;-80
2023/07/10 06:07:16;;;;;;;8.13;7.15;;;;;;;26.72;56.67;97681.41;5971383;23;20289;-80
2023/07/10 06:09:42;;;;;;;7.50;6.82;;;;;;;26.86;56.77;97690.94;5971829;23;20474;-81
2023/07/10 06:12:08;;;;;;;7.43;6.72;;;;;;;26.94;56.19;97694.56;5937371;23;20151;-80
2023/07/10 06:14:34;;;;;;;7.80;7.05;;;;;;;26.93;56.24;97690.38;5948713;23;20363;-80
2023/07/10 06:17:00;;;;;;;7.88;6.88;;;;;;;27.00;56.04;97687.88;5994150;23;20306;-82
2023/07/10 06:19:26;;;;;;;7.80;7.03;;;;;;;27.14;55.40;97701.63;5947645;23;20283;-81
2023/07/10 06:22:04;;;;;;;7.10;6.30;;;;;;;27.31;55.43;97691.78;5937464;23;20165;-80
2023/07/10 06:24:29;;;;;;;7.47;6.78;;;;;;;27.39;55.25;97694.31;5970972;23;20147;-80
2023/07/10 06:26:55;;;;;;;7.32;6.45;;;;;;;27.51;54.72;97684.69;5970870;23;20429;-80
2023/07/10 06:29:20;;;;;;;7.28;6.57;;;;;;;27.60;54.43;97698.66;5938330;23;20030;-81
2023/07/10 06:31:46;;;;;;;7.85;7.15;;;;;;;27.61;54.57;97687.63;5938243;23;20155;-81
2023/07/10 06:34:11;;;;;;;7.38;6.68;;;;;;;27.81;53.59;97696.53;5937891;23;20050;-80
2023/07/10 06:36:37;;;;;;;7.55;6.75;;;;;;;27.95;53.62;97700.66;5972060;23;20333;-81
2023/07/10 06:39:04;;;;;;;9.30;7.03;;;;;;;28.02;53.32;97703.53;5946630;23;20169;-80
2023/07/10 06:41:30;;;;;;;7.10;6.40;;;;;;;27.99;53.49;97702.31;5937612;23;20139;-80
2023/07/10 06:43:56;;;;;;;8.68;7.15;;;;;;;28.15;52.61;97704.97;5935760;23;20403;-81
2023/07/10 06:46:23;;;;;;;7.18;6.47;;;;;;;28.23;52.36;97699.81;5946915;23;20316;-81
2023/07/10 06:48:48;;;;;;;7.50;6.72;;;;;;;28.31;52.74;97706.84;5939208;23;20267;-81
2023/07/10 06:51:14;;;;;;;7.50;6.80;;;;;;;28.31;52.42;97713.00;5995026;23;20176;-81
2023/07/10 06:53:39;;;;;;;7.05;6.45;;;;;;;28.44;52.15;97707.53;5916132;23;20268;-80
2023/07/10 06:56:05;;;;;;;7.63;6.63;;;;;;;28.50;51.80;97706.16;5915958;23;20080;-81
2023/07/10 06:58:32;;;;;;;6.97;6.28;;;;;;;28.57;52.07;97712.47;5963365;23;20621;-81
2023/07/10 07:00:58;;;;;;;8.63;7.40;;;;;;;28.51;52.70;97711.13;5939649;23;20273;-81
2023/07/10 07:03:24;;;;;;;7.18;6.53;;;;;;;28.72;52.07;97710.88;5971044;23;20181;-81
2023/07/10 07:05:50;;;;;;;8.20;7.25;;;;;;;28.89;51.12;97709.69;5914744;23;20291;-80
2023/07/10 07:08:17;;;;;;;6.90;6.22;;;;;;;29.00;51.34;97709.88;5939210;23;20491;-82
2023/07/10 07:10:43;;;;;;;6.72;6.00;;;;;;;29.20;50.63;97702.66;5937974;23;20192;-83
2023/07/10 07:13:10;;;;;;;7.15;6.50;;;;;;;29.05;50.60;97706.91;5961665;23;20341;-82
2023/07/10 07:15:35;;;;;;;7.35;6.75;;;;;;;29.16;50.04;97701.00;5913648;23;20375;-80
2023/07/10 07:18:03;;;;;;;7.32;6.40;;;;;;;29.22;49.33;97704.94;5963022;23;20396;-83
2023/07/10 07:20:29;;;;;;;7.80;7.10;;;;;;;29.28;49.51;97704.31;5960960;23;20321;-81
2023/07/10 07:22:55;;;;;;;6.68;6.07;;;;;;;29.24;50.25;97700.78;5913604;23;20470;-81
2023/07/10 07:25:20;;;;;;;7.13;6.45;;;;;;;29.24;49.59;97702.72;5913389;23;20403;-81
2023/07/10 07:27:46;;;;;;;6.75;6.05;;;;;;;29.40;49.38;97697.25;5968709;23;20268;-81
2023/07/10 07:30:12;;;;;;;7.75;6.72;;;;;;;29.53;49.30;97690.59;5913267;23;20331;-81
2023/07/10 07:32:37;;;;;;;7.40;6.70;;;;;;;29.31;50.57;97687.50;5938870;23;20533;-81
2023/07/10 07:35:28;;;;;;;6.88;6.28;;;;;;;29.92;48.52;97690.50;5915058;23;20407;-81
2023/07/10 07:37:54;;;;;;;7.80;6.28;;;;;;;30.08;48.35;97695.72;5916739;23;20297;-80
2023/07/10 07:40:19;;;;;;;7.32;6.63;;;;;;;30.20;47.81;97694.75;5947795;23;20439;-82
2023/07/10 07:42:48;;;;;;;7.72;7.03;;;;;;;30.24;48.12;97692.88;5940708;23;20248;-81
2023/07/10 07:45:17;;;;;;;7.57;6.40;;;;;;;30.42;47.07;97702.00;5937592;23;20346;-81
2023/07/10 07:47:46;;;;;;;7.05;6.47;;;;;;;30.40;47.23;97704.28;5961183;23;20298;-81
2023/07/10 07:50:11;;;;;;;7.22;6.68;;;;;;;30.52;47.06;97703.28;5963744;23;20180;-81
2023/07/10 07:52:37;;;;;;;8.00;6.55;;;;;;;30.40;46.93;97701.59;5939824;23;20181;-82
2023/07/10 07:55:03;;;;;;;7.43;6.70;;;;;;;30.56;47.03;97714.84;5939417;23;20342;-81
2023/07/10 07:57:29;;;;;;;7.30;6.60;;;;;;;30.57;47.52;97708.34;5995874;23;20223;-80
2023/07/10 07:59:54;;;;;;;7.38;6.80;;;;;;;30.63;46.14;97708.78;5938447;23;20203;-81
2023/07/10 08:02:20;;;;;;;6.95;6.35;;;;;;;30.77;46.41;97710.88;5938968;23;20301;-81
2023/07/10 08:04:45;;;;;;;7.53;6.82;;;;;;;30.89;45.80;97713.34;5971327;23;20314;-81
2023/07/10 08:07:11;;;;;;;6.95;6.35;;;;;;;30.98;45.84;97715.78;5938779;23;20186;-80
2023/07/10 08:09:37;;;;;;;7.57;6.93;;;;;;;30.83;45.09;97705.97;5917809;23;20126;-81
2023/07/10 08:12:02;;;;;;;6.88;6.28;;;;;;;31.10;44.10;97720.94;5938532;23;20384;-82
2023/07/10 08:14:28;;;;;;;8.57;7.30;;;;;;;31.19;43.64;97712.56;5970835;23;20302;-81
2023/07/10 08:16:54;;;;;;;7.53;6.85;;;;;;;31.27;44.75;97716.88;5970737;23;20234;-81
2023/07/10 08:19:19;;;;;;;7.20;6.60;;;;;;;31.14;44.13;97713.66;5996026;23;20379;-80
2023/07/10 08:21:46;;;;;;;7.95;7.20;;;;;;;31.04;44.36;97711.63;5947945;23;20177;-81
2023/07/10 08:24:11;;;;;;;7.20;6.60;;;;;;;31.11;44.63;97719.78;5915036;23;20339;-81
2023/07/10 08:26:37;;;;;;;7.20;6.57;;;;;;;31.16;44.81;97707.94;5971242;23;20532;-80
2023/07/10 08:29:21;;;;;;;7.95;7.25;;;;;;;31.57;44.54;97713.38;5938922;23;20332;-80
2023/07/10 08:31:47;;;;;;;7.60;6.90;;;;;;;31.63;44.15;97708.41;5938382;23;20160;-80
2023/07/10 08:34:12;;;;;;;7.78;7.10;;;;;;;31.51;44.13;97712.94;5995361;23;20479;-81
2023/07/10 08:36:38;;;;;;;7.00;6.40;;;;;;;31.67;43.71;97712.69;5937871;23;20402;-80
2023/07/10 08:39:04;;;;;;;7.75;7.05;;;;;;;31.80;43.32;97715.09;5971772;23;20356;-81
2023/07/10 08:41:29;;;;;;;7.60;6.90;;;;;;;31.93;42.78;97713.66;5947926;23;20384;-81
2023/07/10 08:43:54;;;;;;;7.47;6.72;;;;;;;31.99;42.36;97714.84;5947460;23;20350;-81
2023/07/10 08:46:22;;;;;;;7.53;6.88;;;;;;;32.08;42.32;97718.06;5946894;23;20131;-81
2023/07/10 08:49:03;;;;;;;7.20;6.60;;;;;;;32.18;42.34;97721.94;5939219;23;20287;-81
2023/07/10 08:52:04;;;;;;;7.10;6.50;;;;;;;32.04;41.29;97725.28;5962785;23;20238;-81
2023/07/10 08:54:29;;;;;;;8.25;7.50;;;;;;;31.98;41.24;97726.00;6057966;23;20244;-81
2023/07/10 08:57:12;;;;;;;7.18;6.55;;;;;;;32.17;42.04;97715.03;6066939;23;20335;-81
2023/07/10 08:59:58;;;;;;;7.65;6.95;;;;;;;32.47;40.33;97714.84;6060202;23;20340;-81
2023/07/10 09:02:25;;;;;;;7.95;7.28;;;;;;;32.66;40.27;97713.03;6083159;23;20351;-81
2023/07/10 09:04:51;;;;;;;8.18;6.75;;;;;;;32.97;39.15;97708.94;6057513;23;20339;-81
2023/07/10 09:07:18;;;;;;;6.90;6.15;;;;;;;33.20;36.90;97710.56;6056382;23;20180;-80
2023/07/10 09:09:47;;;;;;;6.55;6.00;;;;;;;33.13;37.83;97713.22;6067194;23;20316;-83
2023/07/10 09:12:42;;;;;;;7.03;6.43;;;;;;;32.98;36.37;97712.41;6057353;23;20199;-81
2023/07/10 09:15:39;;;;;;;6.65;6.15;;;;;;;33.09;36.72;97710.50;6056774;23;20331;-80
2023/07/10 09:18:07;;;;;;;6.43;5.88;;;;;;;32.86;36.96;97716.19;6056781;23;20439;-80
2023/07/10 09:20:33;;;;;;;7.07;6.40;;;;;;;32.65;37.17;97728.44;6091940;23;20324;-80
2023/07/10 09:23:01;;;;;;;8.10;6.72;;;;;;;32.76;36.82;97728.47;6066671;23;20404;-81
2023/07/10 09:25:27;;;;;;;7.03;6.32;;;;;;;32.85;37.59;97725.44;6057785;23;20185;-82
2023/07/10 09:27:54;;;;;;;7.30;5.70;;;;;;;33.04;37.14;97719.75;5961800;23;20113;-81
2023/07/10 09:30:43;;;;;;;6.72;6.00;;;;;;;33.53;35.83;97724.91;5938984;23;20164;-82
2023/07/10 09:33:09;;;;;;;6.82;6.25;;;;;;;33.75;34.97;97720.31;5939727;23;20279;-81
2023/07/10 09:35:36;;;;;;;6.50;5.90;;;;;;;33.67;35.00;97726.84;5972663;23;20238;-81
2023/07/10 09:38:02;;;;;;;7.47;6.30;;;;;;;33.64;33.80;97731.09;5972784;23;20228;-82
2023/07/10 09:40:37;;;;;;;6.53;5.80;;;;;;;33.59;34.50;97728.78;5939609;23;20180;-81
2023/07/10 09:43:13;;;;;;;6.18;5.57;;;;;;;33.66;33.64;97720.66;5940873;23;20303;-81
2023/07/10 09:45:51;;;;;;;5.70;5.20;;;;;;;33.84;32.84;97715.28;5916665;23;20080;-81
2023/07/10 09:48:22;;;;;;;6.47;5.88;;;;;;;33.82;32.47;97714.91;5939161;23;20178;-81
2023/07/10 09:50:50;;;;;;;6.93;6.32;;;;;;;33.56;33.37;97716.03;5938987;23;20248;-81
2023/07/10 09:53:45;;;;;;;6.82;6.22;;;;;;;33.34;34.28;97713.28;5942952;23;20299;-82
2023/07/10 09:56:27;;;;;;;7.40;6.80;;;;;;;33.03;33.62;97715.50;5965777;23;20247;-81
2023/07/10 09:58:54;;;;;;;6.70;6.20;;;;;;;32.43;34.18;97697.84;5938962;23;20041;-82
2023/07/10 10:01:27;;;;;;;6.70;6.20;;;;;;;32.27;34.82;97702.78;5943649;23;20291;-81
2023/07/10 10:03:53;;;;;;;6.53;6.03;;;;;;;32.09;35.38;97716.88;5973166;23;20597;-81
2023/07/10 10:06:27;;;;;;;6.05;5.55;;;;;;;31.90;34.09;97707.09;5948429;23;20318;-81
2023/07/10 10:08:53;;;;;;;6.38;5.78;;;;;;;32.00;33.67;97702.19;5973703;23;20209;-81
2023/07/10 10:11:39;;;;;;;5.72;5.32;;;;;;;32.53;33.52;97704.47;5916860;23;20211;-81
2023/07/10 10:14:10;;;;;;;5.97;5.53;;;;;;;32.89;33.14;97709.28;5941857;23;20023;-81
2023/07/10 10:16:44;;;;;;;6.43;5.93;;;;;;;33.07;32.29;97702.00;5939582;23;20360;-80
2023/07/10 10:19:24;;;;;;;6.38;5.88;;;;;;;33.20;31.69;97703.22;5938776;23;20346;-80
2023/07/10 10:21:50;;;;;;;7.13;6.47;;;;;;;33.05;33.80;97707.00;5964896;23;20173;-82
2023/07/10 10:24:16;;;;;;;6.30;5.80;;;;;;;33.35;31.87;97712.16;5943495;23;20325;-82
2023/07/10 10:27:04;;;;;;;5.70;5.15;;;;;;;33.75;31.58;97707.56;5965868;23;20192;-83
2023/07/10 10:29:49;;;;;;;6.57;5.97;;;;;;;34.18;30.09;97706.78;5943170;23;20084;-80
2023/07/10 10:32:50;;;;;;;5.38;4.97;;;;;;;34.06;29.41;97696.38;5963626;23;20209;-81
2023/07/10 10:35:36;;;;;;;5.85;5.25;;;;;;;33.77;29.83;97697.16;5940480;23;20278;-80
2023/07/10 10:38:05;;;;;;;5.32;4.93;;;;;;;33.72;30.03;97704.88;5920323;23;20186;-82
2023/07/10 10:40:40;;;;;;;5.13;4.70;;;;;;;33.88;29.75;97707.19;5977827;23;20573;-81
2023/07/10 10:43:36;;;;;;;5.50;5.10;;;;;;;34.27;29.62;97701.00;5943839;23;20170;-80
2023/07/10 10:46:11;;;;;;;6.65;6.15;;;;;;;34.09;30.50;97707.19;5917348;23;20358;-81
2023/07/10 10:48:43;;;;;;;6.88;6.38;;;;;;;34.09;30.25;97701.78;5973071;23;20404;-81
2023/07/10 10:51:36;;;;;;;6.53;5.97;;;;;;;34.05;30.35;97706.44;5975537;23;20361;-82
2023/07/10 10:54:14;;;;;;;5.72;5.28;;;;;;;33.95;29.63;97707.97;5972058;23;20182;-82
2023/07/10 10:56:48;;;;;;;5.30;4.90;;;;;;;33.89;28.96;97698.69;5939930;23;20383;-81
2023/07/10 10:59:45;;;;;;;4.88;4.47;;;;;;;34.12;28.19;97698.31;5940941;23;20393;-81
2023/07/10 11:03:28;;;;;;;4.22;3.90;;;;;;;34.07;27.82;97697.94;5940967;23;20259;-81
2023/07/10 11:05:56;;;;;;;4.40;3.90;;;;;;;34.01;27.33;97702.94;6052235;23;20323;-81
2023/07/10 11:08:26;;;;;;;3.80;3.50;;;;;;;34.16;27.38;97690.19;6027605;23;20346;-81
2023/07/10 11:10:52;;;;;;;3.80;3.55;;;;;;;34.43;28.03;97698.66;5926668;23;20223;-82
2023/07/10 11:13:38;;;;;;;4.35;4.00;;;;;;;34.32;28.29;97693.25;5886938;23;20377;-81
2023/07/10 11:16:05;;;;;;;4.60;4.20;;;;;;;34.66;25.59;97678.50;5861120;23;20393;-80
2023/07/10 11:18:33;;;;;;;3.60;3.40;;;;;;;34.79;25.25;97685.03;5860373;23;20265;-81
2023/07/10 11:21:01;;;;;;;3.75;3.45;;;;;;;35.02;25.67;97681.06;5862068;23;20236;-81
2023/07/10 11:23:41;;;;;;;3.83;3.53;;;;;;;35.13;25.32;97687.19;5866167;23;20448;-81
2023/07/10 11:26:07;;;;;;;3.92;3.63;;;;;;;34.77;26.50;97684.66;5912046;23;20085;-80
2023/07/10 11:28:32;;;;;;;3.80;3.50;;;;;;;33.98;26.85;97676.69;5886740;23;20375;-80
2023/07/10 11:31:17;;;;;;;3.60;3.30;;;;;;;34.32;25.97;97693.25;5896052;23;20324;-81
2023/07/10 11:33:43;;;;;;;4.18;3.78;;;;;;;34.18;26.62;97676.28;5890502;23;20289;-82
2023/07/10 11:36:18;;;;;;;3.88;3.60;;;;;;;34.13;27.43;97674.75;5909097;23;20193;-82
2023/07/10 11:39:05;;;;;;;4.75;4.35;;;;;;;33.92;28.66;97664.75;5923411;23;20201;-81
2023/07/10 11:41:36;;;;;;;4.72;3.95;;;;;;;33.89;28.62;97668.22;5978549;23;20268;-82
2023/07/10 11:44:11;;;;;;;3.92;3.42;;;;;;;33.97;28.89;97673.22;5956477;23;20143;-80